Aérodrome :
LOGIN :

S'inscrire | Disclaimer

   EN    FR    IT 

 










Légende :    VFR   VFR Marginal   IFR   IFR Intensif   IFR Très Intensif
Visi : 
Plafond : 
>= 8 km
>= 3000ft
5 à 8 km
1000 à 3000 ft
1500m à 5 km
500 à 1000 ft
800 à 1500m
200 à 500 ft
< 800m
< 200 ft
Symboles :   Orages  Brouillard  Fortes neiges  Fortes précipitations  Vent > 20 kt
SIGMETs :   Divers  Orages  Givrage  Turbulence  Onde Orograph.  Cendres Volcan.







- Altitude de l'aérodrome : 1306 ft
- Code IATA : ACH


LSZR - Alten Rhein

DERNIER METAR :
  • 202050Z AUTO 24009KT 200V270 9999 -RA BKN060 07/04 Q0999

METARs EXPIRÉS :
  • 202020Z AUTO 26010KT 210V340 9999 -RA BKN041 06/04 Q1000
  • 201950Z AUTO VRB03KT 9999 -RA BKN011 03/02 Q0999
  • 201920Z AUTO VRB02KT 9999 RA BKN017 BKN022 03/02 Q1000
  • 201850Z AUTO VRB01KT 8000 -RA BKN021 BKN026 03/02 Q1000
  • 201820Z AUTO VRB02KT 9999 -RA BKN023 04/02 Q0999

TAF TAF LSZR
Valide du 20 à 15h jusqu'au 21 à 00h UTC


201425Z 2015/2024 23008KT 9999 BKN080
PROB40
TEMPO 2015/2018 19015G30KT
TEMPO 2016/2024 RA
PROB40
TEMPO 2016/2020 3000 RASN BKN008
PROB30
TEMPO 2017/2020 1500 SN BKN007
TEMPO 2018/2024 26015G33KT
ATIS : +41 71 858 51 66
Pas de NOTAMs connus pour ce terrain.



MET'MAP, la Météo Aéronautique d'un coup d'oeil ! - Copyright ORBIFLY Décembre 2007 - Disclaimer

ORBIFLY MET'MAP TEAM :

Programmation & Développement : Alexandra Zaïnal
Conception & Développement : Baudouin d'Aumeries
Co-Programmation & Développement : Marc-Olivier Méhu
Soutien technique & logistique : Manuel Goepfert

Contact : metmap@orbifly.com




SOURCES & CREDITS :

   NOAA